Terminal Aerodrome Forecast
Issued by NWS Shreveport, LA

Home | Current Version | Previous Version | Text Only | Print | Product List | Glossary On
Versions: 1 2 3 4 5 6 7 8 9 10 11 12 13 14 15 16 17 18 19 20 21 22 23 24 25 26 27 28 29 30 31 32 33 34 35
707
FTUS44 KSHV 282332
TAFSHV
TAF
KSHV 282332Z 2900/2924 VRB03KT P6SM VCSH SCT060 BKN120 OVC250
     FM290300 VRB03KT P6SM FEW060 SCT150 BKN250
      TEMPO 2910/2913 5SM BR
     FM291300 22005KT P6SM SCT150 BKN250
     FM291600 23007KT P6SM SCT035 SCT150 SCT250
     FM291800 22007KT P6SM SCT045 SCT250=

USA.gov is the U.S. government's official web portal to all federal, state and local government web resources and services.